sensor_id;sensor_type;location;lat;lon;timestamp;pressure;altitude;pressure_sealevel;temperature;humidity
54900;BME280;40801;41.924;25.562;2022-10-01T00:00:23;99866.88;;;19.41;60.23
54900;BME280;40801;41.924;25.562;2022-10-01T00:02:50;99864.13;;;19.41;60.23
54900;BME280;40801;41.924;25.562;2022-10-01T00:05:16;99867.56;;;19.38;60.41
54900;BME280;40801;41.924;25.562;2022-10-01T00:07:44;99862.34;;;19.33;60.47
54900;BME280;40801;41.924;25.562;2022-10-01T00:10:10;99864.19;;;19.29;60.27
54900;BME280;40801;41.924;25.562;2022-10-01T00:12:37;99862.78;;;19.19;60.78
54900;BME280;40801;41.924;25.562;2022-10-01T00:15:02;99872.22;;;19.22;60.07
54900;BME280;40801;41.924;25.562;2022-10-01T00:17:28;99865.06;;;19.17;60.41
54900;BME280;40801;41.924;25.562;2022-10-01T00:19:53;99868.41;;;19.10;60.44
54900;BME280;40801;41.924;25.562;2022-10-01T00:22:19;99859.06;;;19.11;60.29
54900;BME280;40801;41.924;25.562;2022-10-01T00:24:44;99856.09;;;19.04;60.68
54900;BME280;40801;41.924;25.562;2022-10-01T00:27:11;99851.88;;;19.07;60.52
54900;BME280;40801;41.924;25.562;2022-10-01T00:29:37;99847.91;;;19.04;60.66
54900;BME280;40801;41.924;25.562;2022-10-01T00:32:03;99849.22;;;18.95;61.02
54900;BME280;40801;41.924;25.562;2022-10-01T00:34:28;99849.28;;;18.82;61.42
54900;BME280;40801;41.924;25.562;2022-10-01T00:36:53;99848.94;;;18.84;61.30
54900;BME280;40801;41.924;25.562;2022-10-01T00:39:18;99845.06;;;18.85;61.48
54900;BME280;40801;41.924;25.562;2022-10-01T00:41:44;99840.56;;;18.93;61.25
54900;BME280;40801;41.924;25.562;2022-10-01T00:46:53;99839.06;;;18.79;61.53
54900;BME280;40801;41.924;25.562;2022-10-01T00:49:21;99845.97;;;18.77;61.96
54900;BME280;40801;41.924;25.562;2022-10-01T00:51:49;99844.97;;;18.81;61.18
54900;BME280;40801;41.924;25.562;2022-10-01T00:54:21;99839.97;;;18.71;61.79
54900;BME280;40801;41.924;25.562;2022-10-01T00:56:48;99835.78;;;18.62;62.30
54900;BME280;40801;41.924;25.562;2022-10-01T00:59:15;99835.69;;;18.58;62.27
54900;BME280;40801;41.924;25.562;2022-10-01T01:01:40;99849.47;;;18.49;61.63
54900;BME280;40801;41.924;25.562;2022-10-01T01:04:06;99851.88;;;18.51;60.13
54900;BME280;40801;41.924;25.562;2022-10-01T01:06:50;99846.72;;;18.49;62.41
54900;BME280;40801;41.924;25.562;2022-10-01T01:09:22;99842.88;;;18.50;62.62
54900;BME280;40801;41.924;25.562;2022-10-01T01:12:02;99844.34;;;18.48;62.46
54900;BME280;40801;41.924;25.562;2022-10-01T01:14:40;99833.47;;;18.36;63.12
54900;BME280;40801;41.924;25.562;2022-10-01T01:17:11;99829.91;;;18.47;61.77
54900;BME280;40801;41.924;25.562;2022-10-01T01:22:11;99819.91;;;18.39;62.85
54900;BME280;40801;41.924;25.562;2022-10-01T01:24:59;99830.53;;;18.29;63.34
54900;BME280;40801;41.924;25.562;2022-10-01T01:29:50;99834.53;;;18.19;63.48
54900;BME280;40801;41.924;25.562;2022-10-01T01:32:20;99836.91;;;18.20;63.51
54900;BME280;40801;41.924;25.562;2022-10-01T01:34:48;99838.28;;;18.14;63.61
54900;BME280;40801;41.924;25.562;2022-10-01T01:37:16;99845.78;;;18.17;63.87
54900;BME280;40801;41.924;25.562;2022-10-01T01:39:43;99844.19;;;18.16;62.72
54900;BME280;40801;41.924;25.562;2022-10-01T01:42:12;99851.13;;;18.14;63.47
54900;BME280;40801;41.924;25.562;2022-10-01T01:44:39;99839.97;;;18.19;63.46
54900;BME280;40801;41.924;25.562;2022-10-01T01:47:06;99834.97;;;18.21;63.06
54900;BME280;40801;41.924;25.562;2022-10-01T01:49:34;99836.09;;;18.20;63.30
54900;BME280;40801;41.924;25.562;2022-10-01T01:52:13;99833.97;;;18.13;63.41
54900;BME280;40801;41.924;25.562;2022-10-01T01:54:40;99841.94;;;18.06;63.54
54900;BME280;40801;41.924;25.562;2022-10-01T01:57:06;99843.44;;;18.04;63.11
54900;BME280;40801;41.924;25.562;2022-10-01T01:59:32;99855.28;;;17.95;63.54
54900;BME280;40801;41.924;25.562;2022-10-01T02:02:01;99844.91;;;17.89;63.40
54900;BME280;40801;41.924;25.562;2022-10-01T02:04:33;99847.09;;;17.95;63.06
54900;BME280;40801;41.924;25.562;2022-10-01T02:09:40;99865.25;;;17.91;62.59
54900;BME280;40801;41.924;25.562;2022-10-01T02:14:53;99864.13;;;17.92;62.23
54900;BME280;40801;41.924;25.562;2022-10-01T02:22:29;99858.78;;;17.84;62.66
54900;BME280;40801;41.924;25.562;2022-10-01T02:25:00;99860.13;;;17.90;61.96
54900;BME280;40801;41.924;25.562;2022-10-01T02:27:28;99860.94;;;18.03;59.55
54900;BME280;40801;41.924;25.562;2022-10-01T02:29:55;99869.13;;;18.03;61.00
54900;BME280;40801;41.924;25.562;2022-10-01T02:32:21;99861.88;;;17.94;62.14
54900;BME280;40801;41.924;25.562;2022-10-01T02:34:48;99873.22;;;17.84;62.57
54900;BME280;40801;41.924;25.562;2022-10-01T02:37:15;99872.06;;;17.85;62.05
54900;BME280;40801;41.924;25.562;2022-10-01T02:39:41;99866.38;;;17.90;61.36
54900;BME280;40801;41.924;25.562;2022-10-01T02:42:07;99867.41;;;17.86;62.70
54900;BME280;40801;41.924;25.562;2022-10-01T02:44:35;99875.16;;;17.84;62.83
54900;BME280;40801;41.924;25.562;2022-10-01T02:47:05;99881.53;;;17.76;63.01
54900;BME280;40801;41.924;25.562;2022-10-01T02:49:33;99883.34;;;17.72;63.03
54900;BME280;40801;41.924;25.562;2022-10-01T02:52:11;99884.59;;;17.74;62.64
54900;BME280;40801;41.924;25.562;2022-10-01T02:57:06;99882.44;;;17.80;62.65
54900;BME280;40801;41.924;25.562;2022-10-01T02:59:50;99873.78;;;17.78;62.77
54900;BME280;40801;41.924;25.562;2022-10-01T03:02:16;99872.41;;;17.84;62.40
54900;BME280;40801;41.924;25.562;2022-10-01T03:04:41;99877.53;;;17.85;62.62
54900;BME280;40801;41.924;25.562;2022-10-01T03:07:07;99880.50;;;17.80;62.32
54900;BME280;40801;41.924;25.562;2022-10-01T03:09:33;99884.25;;;17.76;62.51
54900;BME280;40801;41.924;25.562;2022-10-01T03:11:59;99896.19;;;17.71;62.68
54900;BME280;40801;41.924;25.562;2022-10-01T03:14:25;99904.81;;;17.73;61.56
54900;BME280;40801;41.924;25.562;2022-10-01T03:16:50;99900.84;;;17.71;63.09
54900;BME280;40801;41.924;25.562;2022-10-01T03:19:16;99903.91;;;17.69;63.16
54900;BME280;40801;41.924;25.562;2022-10-01T03:21:41;99896.75;;;17.77;61.91
54900;BME280;40801;41.924;25.562;2022-10-01T03:24:06;99909.38;;;17.81;61.65
54900;BME280;40801;41.924;25.562;2022-10-01T03:26:32;99909.13;;;17.74;62.73
54900;BME280;40801;41.924;25.562;2022-10-01T03:28:57;99902.44;;;17.72;63.14
54900;BME280;40801;41.924;25.562;2022-10-01T03:31:22;99902.88;;;17.74;63.18
54900;BME280;40801;41.924;25.562;2022-10-01T03:33:48;99911.75;;;17.71;62.86
54900;BME280;40801;41.924;25.562;2022-10-01T03:36:13;99908.34;;;17.74;62.92
54900;BME280;40801;41.924;25.562;2022-10-01T03:38:38;99899.59;;;17.68;63.24
54900;BME280;40801;41.924;25.562;2022-10-01T03:41:04;99900.06;;;17.70;61.05
54900;BME280;40801;41.924;25.562;2022-10-01T03:43:29;99909.03;;;17.71;60.64
54900;BME280;40801;41.924;25.562;2022-10-01T03:45:54;99912.31;;;17.76;59.82
54900;BME280;40801;41.924;25.562;2022-10-01T03:48:20;99914.47;;;17.71;62.28
54900;BME280;40801;41.924;25.562;2022-10-01T03:50:52;99911.16;;;17.65;62.54
54900;BME280;40801;41.924;25.562;2022-10-01T03:53:18;99912.47;;;17.59;62.83
54900;BME280;40801;41.924;25.562;2022-10-01T03:55:44;99907.38;;;17.57;62.81
54900;BME280;40801;41.924;25.562;2022-10-01T03:58:09;99908.97;;;17.58;62.82
54900;BME280;40801;41.924;25.562;2022-10-01T04:00:34;99925.31;;;17.58;62.91
54900;BME280;40801;41.924;25.562;2022-10-01T04:02:59;99933.72;;;17.53;63.52
54900;BME280;40801;41.924;25.562;2022-10-01T04:05:25;99938.94;;;17.46;63.61
54900;BME280;40801;41.924;25.562;2022-10-01T04:07:50;99928.94;;;17.50;63.24
54900;BME280;40801;41.924;25.562;2022-10-01T04:10:15;99921.81;;;17.58;63.14
54900;BME280;40801;41.924;25.562;2022-10-01T04:12:40;99914.63;;;17.53;63.68
54900;BME280;40801;41.924;25.562;2022-10-01T04:15:06;99919.63;;;17.51;63.58
54900;BME280;40801;41.924;25.562;2022-10-01T04:17:33;99917.03;;;17.55;63.51
54900;BME280;40801;41.924;25.562;2022-10-01T04:20:00;99915.56;;;17.57;61.48
54900;BME280;40801;41.924;25.562;2022-10-01T04:22:25;99909.22;;;17.65;62.91
54900;BME280;40801;41.924;25.562;2022-10-01T04:24:50;99902.78;;;17.70;62.75
54900;BME280;40801;41.924;25.562;2022-10-01T04:27:16;99898.22;;;17.74;61.83
54900;BME280;40801;41.924;25.562;2022-10-01T04:29:42;99903.69;;;17.74;63.24
54900;BME280;40801;41.924;25.562;2022-10-01T04:32:07;99908.56;;;17.81;62.84
54900;BME280;40801;41.924;25.562;2022-10-01T04:34:32;99909.41;;;17.93;60.28
54900;BME280;40801;41.924;25.562;2022-10-01T04:37:16;99914.38;;;18.04;61.01
54900;BME280;40801;41.924;25.562;2022-10-01T04:39:41;99927.69;;;18.17;60.03
54900;BME280;40801;41.924;25.562;2022-10-01T04:42:06;99927.47;;;18.10;62.03
54900;BME280;40801;41.924;25.562;2022-10-01T04:44:32;99924.03;;;18.13;61.91
54900;BME280;40801;41.924;25.562;2022-10-01T04:46:57;99926.31;;;18.11;62.24
54900;BME280;40801;41.924;25.562;2022-10-01T04:49:22;99922.91;;;18.02;62.42
54900;BME280;40801;41.924;25.562;2022-10-01T04:51:47;99929.63;;;18.17;60.26
54900;BME280;40801;41.924;25.562;2022-10-01T04:54:13;99938.94;;;18.28;60.73
54900;BME280;40801;41.924;25.562;2022-10-01T04:56:38;99942.47;;;18.41;60.61
54900;BME280;40801;41.924;25.562;2022-10-01T04:59:03;99937.00;;;18.41;61.28
54900;BME280;40801;41.924;25.562;2022-10-01T05:01:29;99939.84;;;18.44;60.38
54900;BME280;40801;41.924;25.562;2022-10-01T05:03:55;99943.16;;;18.62;59.02
54900;BME280;40801;41.924;25.562;2022-10-01T05:06:20;99939.03;;;18.68;59.75
54900;BME280;40801;41.924;25.562;2022-10-01T05:08:46;99932.06;;;18.71;60.56
54900;BME280;40801;41.924;25.562;2022-10-01T05:11:13;99935.50;;;18.80;59.94
54900;BME280;40801;41.924;25.562;2022-10-01T05:13:39;99933.41;;;18.89;59.88
54900;BME280;40801;41.924;25.562;2022-10-01T05:16:04;99929.72;;;18.97;59.89
54900;BME280;40801;41.924;25.562;2022-10-01T05:18:29;99926.84;;;19.06;59.50
54900;BME280;40801;41.924;25.562;2022-10-01T05:20:54;99940.94;;;19.08;60.23
54900;BME280;40801;41.924;25.562;2022-10-01T05:23:20;99962.00;;;19.19;59.52
54900;BME280;40801;41.924;25.562;2022-10-01T05:25:45;99963.28;;;19.38;58.56
54900;BME280;40801;41.924;25.562;2022-10-01T05:28:11;99962.25;;;19.42;59.32
54900;BME280;40801;41.924;25.562;2022-10-01T05:30:36;99974.81;;;19.59;59.03
54900;BME280;40801;41.924;25.562;2022-10-01T05:33:02;99971.94;;;19.68;59.12
54900;BME280;40801;41.924;25.562;2022-10-01T05:35:28;99971.59;;;19.85;57.80
54900;BME280;40801;41.924;25.562;2022-10-01T05:37:57;99960.03;;;20.07;57.61
54900;BME280;40801;41.924;25.562;2022-10-01T05:40:23;99964.88;;;20.30;56.59
54900;BME280;40801;41.924;25.562;2022-10-01T05:42:51;99966.81;;;20.61;55.52
54900;BME280;40801;41.924;25.562;2022-10-01T05:45:17;99959.97;;;20.70;55.27
54900;BME280;40801;41.924;25.562;2022-10-01T05:47:45;99947.72;;;21.03;54.72
54900;BME280;40801;41.924;25.562;2022-10-01T05:50:12;99943.63;;;21.13;54.40
54900;BME280;40801;41.924;25.562;2022-10-01T05:52:38;99931.25;;;21.22;53.35
54900;BME280;40801;41.924;25.562;2022-10-01T05:55:05;99946.00;;;21.33;54.08
54900;BME280;40801;41.924;25.562;2022-10-01T05:57:30;99956.34;;;21.40;53.54
54900;BME280;40801;41.924;25.562;2022-10-01T05:59:55;99957.38;;;21.55;53.40
54900;BME280;40801;41.924;25.562;2022-10-01T06:02:22;99964.06;;;21.77;52.14
54900;BME280;40801;41.924;25.562;2022-10-01T06:04:47;99965.91;;;22.15;50.89
54900;BME280;40801;41.924;25.562;2022-10-01T06:07:12;99963.13;;;22.38;50.97
54900;BME280;40801;41.924;25.562;2022-10-01T06:09:38;99952.44;;;22.59;51.16
54900;BME280;40801;41.924;25.562;2022-10-01T06:12:03;99952.16;;;22.94;48.19
54900;BME280;40801;41.924;25.562;2022-10-01T06:14:29;99948.19;;;23.59;47.98
54900;BME280;40801;41.924;25.562;2022-10-01T06:16:54;99952.63;;;24.15;46.38
54900;BME280;40801;41.924;25.562;2022-10-01T06:19:19;99947.69;;;23.90;46.04
54900;BME280;40801;41.924;25.562;2022-10-01T06:21:45;99939.38;;;23.83;46.24
54900;BME280;40801;41.924;25.562;2022-10-01T06:24:10;99934.44;;;23.62;47.95
54900;BME280;40801;41.924;25.562;2022-10-01T06:26:36;99940.44;;;23.34;47.83
54900;BME280;40801;41.924;25.562;2022-10-01T06:29:01;99942.97;;;23.50;48.09
54900;BME280;40801;41.924;25.562;2022-10-01T06:31:27;99940.41;;;24.16;47.31
54900;BME280;40801;41.924;25.562;2022-10-01T06:33:53;99948.34;;;24.83;45.80
54900;BME280;40801;41.924;25.562;2022-10-01T06:36:18;99951.31;;;25.25;44.90
54900;BME280;40801;41.924;25.562;2022-10-01T06:38:46;99943.06;;;25.43;46.17
54900;BME280;40801;41.924;25.562;2022-10-01T06:41:11;99927.97;;;25.09;45.69
54900;BME280;40801;41.924;25.562;2022-10-01T06:43:37;99924.34;;;24.87;45.50
54900;BME280;40801;41.924;25.562;2022-10-01T06:46:03;99922.22;;;24.59;46.38
54900;BME280;40801;41.924;25.562;2022-10-01T06:48:29;99931.16;;;24.38;46.42
54900;BME280;40801;41.924;25.562;2022-10-01T06:50:55;99937.72;;;24.26;45.99
54900;BME280;40801;41.924;25.562;2022-10-01T06:53:20;99935.34;;;24.21;46.35
54900;BME280;40801;41.924;25.562;2022-10-01T06:55:46;99933.19;;;24.48;45.95
54900;BME280;40801;41.924;25.562;2022-10-01T06:58:12;99926.84;;;25.17;45.84
54900;BME280;40801;41.924;25.562;2022-10-01T07:00:38;99932.88;;;26.01;43.01
54900;BME280;40801;41.924;25.562;2022-10-01T07:03:04;99912.59;;;26.85;41.50
54900;BME280;40801;41.924;25.562;2022-10-01T07:05:30;99912.34;;;27.39;40.57
54900;BME280;40801;41.924;25.562;2022-10-01T07:07:55;99916.25;;;28.00;39.79
54900;BME280;40801;41.924;25.562;2022-10-01T07:10:21;99914.22;;;28.04;38.38
54900;BME280;40801;41.924;25.562;2022-10-01T07:12:47;99918.66;;;28.43;41.00
54900;BME280;40801;41.924;25.562;2022-10-01T07:15:13;99924.66;;;28.38;37.63
54900;BME280;40801;41.924;25.562;2022-10-01T07:17:45;99932.66;;;27.84;38.36
54900;BME280;40801;41.924;25.562;2022-10-01T07:20:12;99938.59;;;27.83;39.10
54900;BME280;40801;41.924;25.562;2022-10-01T07:22:39;99934.97;;;27.89;39.00
54900;BME280;40801;41.924;25.562;2022-10-01T07:25:04;99933.38;;;27.92;39.85
54900;BME280;40801;41.924;25.562;2022-10-01T07:27:29;99934.22;;;27.85;38.72
54900;BME280;40801;41.924;25.562;2022-10-01T07:29:55;99939.19;;;27.45;38.66
54900;BME280;40801;41.924;25.562;2022-10-01T07:32:23;99936.97;;;27.26;39.36
54900;BME280;40801;41.924;25.562;2022-10-01T07:34:49;99929.47;;;27.20;39.62
54900;BME280;40801;41.924;25.562;2022-10-01T07:37:14;99928.69;;;27.15;38.80
54900;BME280;40801;41.924;25.562;2022-10-01T07:39:39;99916.50;;;26.95;39.80
54900;BME280;40801;41.924;25.562;2022-10-01T07:42:05;99914.56;;;26.92;40.32
54900;BME280;40801;41.924;25.562;2022-10-01T07:44:30;99916.59;;;26.70;41.06
54900;BME280;40801;41.924;25.562;2022-10-01T07:46:55;99924.09;;;26.77;40.69
54900;BME280;40801;41.924;25.562;2022-10-01T07:49:21;99926.78;;;26.95;40.73
54900;BME280;40801;41.924;25.562;2022-10-01T07:51:49;99948.00;;;27.30;39.43
54900;BME280;40801;41.924;25.562;2022-10-01T07:54:14;99941.63;;;27.99;38.25
54900;BME280;40801;41.924;25.562;2022-10-01T07:56:40;99940.56;;;29.06;36.88
54900;BME280;40801;41.924;25.562;2022-10-01T07:59:05;99927.78;;;29.92;37.31
54900;BME280;40801;41.924;25.562;2022-10-01T08:01:32;99925.38;;;30.41;33.66
54900;BME280;40801;41.924;25.562;2022-10-01T08:03:57;99939.09;;;30.92;33.31
54900;BME280;40801;41.924;25.562;2022-10-01T08:06:22;99930.13;;;31.40;32.08
54900;BME280;40801;41.924;25.562;2022-10-01T08:08:48;99926.09;;;32.10;33.93
54900;BME280;40801;41.924;25.562;2022-10-01T08:11:13;99921.72;;;32.41;30.15
54900;BME280;40801;41.924;25.562;2022-10-01T08:13:39;99929.25;;;32.86;29.87
54900;BME280;40801;41.924;25.562;2022-10-01T08:16:05;99929.81;;;32.93;30.10
54900;BME280;40801;41.924;25.562;2022-10-01T08:18:33;99931.94;;;33.31;29.21
54900;BME280;40801;41.924;25.562;2022-10-01T08:20:59;99922.84;;;33.52;29.32
54900;BME280;40801;41.924;25.562;2022-10-01T08:23:28;99902.28;;;33.59;28.17
54900;BME280;40801;41.924;25.562;2022-10-01T08:25:57;99885.44;;;33.97;28.30
54900;BME280;40801;41.924;25.562;2022-10-01T08:28:23;99895.03;;;34.65;29.45
54900;BME280;40801;41.924;25.562;2022-10-01T08:30:48;99907.50;;;34.86;26.49
54900;BME280;40801;41.924;25.562;2022-10-01T08:33:13;99906.09;;;34.91;26.30
54900;BME280;40801;41.924;25.562;2022-10-01T08:35:39;99913.56;;;35.47;25.97
54900;BME280;40801;41.924;25.562;2022-10-01T08:38:05;99919.50;;;35.18;25.97
54900;BME280;40801;41.924;25.562;2022-10-01T08:40:33;99922.47;;;35.23;26.76
54900;BME280;40801;41.924;25.562;2022-10-01T08:43:02;99912.81;;;35.55;25.37
54900;BME280;40801;41.924;25.562;2022-10-01T08:45:49;99917.84;;;35.60;25.49
54900;BME280;40801;41.924;25.562;2022-10-01T08:53:41;99909.50;;;35.97;24.68
54900;BME280;40801;41.924;25.562;2022-10-01T08:56:29;99908.13;;;35.92;24.93
54900;BME280;40801;41.924;25.562;2022-10-01T08:58:56;99901.59;;;36.32;23.57
54900;BME280;40801;41.924;25.562;2022-10-01T09:01:23;99890.56;;;36.98;23.98
54900;BME280;40801;41.924;25.562;2022-10-01T09:03:48;99888.63;;;36.80;24.08
54900;BME280;40801;41.924;25.562;2022-10-01T09:06:18;99893.63;;;36.58;23.86
54900;BME280;40801;41.924;25.562;2022-10-01T09:11:35;99881.63;;;36.39;23.58
54900;BME280;40801;41.924;25.562;2022-10-01T09:13:59;99880.91;;;37.41;22.41
54900;BME280;40801;41.924;25.562;2022-10-01T09:16:28;99883.31;;;37.58;22.66
54900;BME280;40801;41.924;25.562;2022-10-01T09:19:05;99875.09;;;37.45;21.94
54900;BME280;40801;41.924;25.562;2022-10-01T09:24:38;99850.81;;;37.80;22.20
54900;BME280;40801;41.924;25.562;2022-10-01T09:27:17;99836.41;;;37.55;21.80
54900;BME280;40801;41.924;25.562;2022-10-01T09:29:45;99833.53;;;36.37;23.01
54900;BME280;40801;41.924;25.562;2022-10-01T09:32:12;99842.75;;;36.38;23.64
54900;BME280;40801;41.924;25.562;2022-10-01T09:34:40;99842.22;;;37.18;22.41
54900;BME280;40801;41.924;25.562;2022-10-01T09:37:10;99843.66;;;37.13;22.57
54900;BME280;40801;41.924;25.562;2022-10-01T09:42:16;99842.13;;;37.45;21.87
54900;BME280;40801;41.924;25.562;2022-10-01T09:44:42;99839.25;;;37.31;23.27
54900;BME280;40801;41.924;25.562;2022-10-01T09:47:18;99848.47;;;36.80;24.41
54900;BME280;40801;41.924;25.562;2022-10-01T09:49:44;99852.28;;;36.31;23.57
54900;BME280;40801;41.924;25.562;2022-10-01T09:52:20;99859.09;;;35.84;24.07
54900;BME280;40801;41.924;25.562;2022-10-01T09:57:26;99868.66;;;36.42;23.64
54900;BME280;40801;41.924;25.562;2022-10-01T09:59:59;99867.88;;;36.41;23.99
54900;BME280;40801;41.924;25.562;2022-10-01T10:02:30;99861.19;;;36.48;25.05
54900;BME280;40801;41.924;25.562;2022-10-01T10:05:03;99848.31;;;36.74;23.97
54900;BME280;40801;41.924;25.562;2022-10-01T10:07:29;99848.81;;;36.54;24.71
54900;BME280;40801;41.924;25.562;2022-10-01T10:09:56;99845.06;;;35.84;24.58
54900;BME280;40801;41.924;25.562;2022-10-01T10:12:28;99827.13;;;35.63;25.43
54900;BME280;40801;41.924;25.562;2022-10-01T10:14:54;99816.03;;;35.69;24.61
54900;BME280;40801;41.924;25.562;2022-10-01T10:17:23;99812.94;;;36.13;25.19
54900;BME280;40801;41.924;25.562;2022-10-01T10:19:49;99821.53;;;36.97;23.92
54900;BME280;40801;41.924;25.562;2022-10-01T10:22:26;99821.41;;;37.34;23.20
54900;BME280;40801;41.924;25.562;2022-10-01T10:24:52;99813.66;;;38.30;22.42
54900;BME280;40801;41.924;25.562;2022-10-01T10:27:28;99818.47;;;37.76;22.29
54900;BME280;40801;41.924;25.562;2022-10-01T10:30:27;99811.81;;;37.07;22.28
54900;BME280;40801;41.924;25.562;2022-10-01T10:32:45;99822.41;;;36.79;24.49
54900;BME280;40801;41.924;25.562;2022-10-01T10:35:13;99815.06;;;36.73;23.76
54900;BME280;40801;41.924;25.562;2022-10-01T10:37:44;99808.13;;;36.22;24.16
54900;BME280;40801;41.924;25.562;2022-10-01T10:40:17;99791.25;;;36.13;24.60
54900;BME280;40801;41.924;25.562;2022-10-01T10:42:50;99781.28;;;36.21;24.76
54900;BME280;40801;41.924;25.562;2022-10-01T10:45:17;99780.19;;;36.37;24.00
54900;BME280;40801;41.924;25.562;2022-10-01T10:47:45;99783.94;;;36.34;23.32
54900;BME280;40801;41.924;25.562;2022-10-01T10:50:25;99800.63;;;36.47;24.02
54900;BME280;40801;41.924;25.562;2022-10-01T10:52:53;99799.53;;;36.08;24.90
54900;BME280;40801;41.924;25.562;2022-10-01T10:57:49;99791.41;;;35.73;24.53
54900;BME280;40801;41.924;25.562;2022-10-01T11:00:18;99795.69;;;35.28;25.20
54900;BME280;40801;41.924;25.562;2022-10-01T11:02:54;99791.91;;;35.22;25.44
54900;BME280;40801;41.924;25.562;2022-10-01T11:05:22;99795.03;;;35.15;25.94
54900;BME280;40801;41.924;25.562;2022-10-01T11:07:49;99807.34;;;35.18;25.67
54900;BME280;40801;41.924;25.562;2022-10-01T11:15:35;99810.47;;;37.60;23.68
54900;BME280;40801;41.924;25.562;2022-10-01T11:36:06;99838.75;;;37.23;23.16
54900;BME280;40801;41.924;25.562;2022-10-01T11:38:37;99855.97;;;36.83;22.83
54900;BME280;40801;41.924;25.562;2022-10-01T11:43:53;99882.91;;;34.90;24.47
54900;BME280;40801;41.924;25.562;2022-10-01T11:49:09;99886.06;;;34.14;26.00
54900;BME280;40801;41.924;25.562;2022-10-01T11:51:42;99884.47;;;33.53;26.87
54900;BME280;40801;41.924;25.562;2022-10-01T11:54:11;99875.75;;;33.00;27.18
54900;BME280;40801;41.924;25.562;2022-10-01T11:56:45;99879.38;;;32.43;28.11
54900;BME280;40801;41.924;25.562;2022-10-01T11:59:42;99885.38;;;31.96;28.85
54900;BME280;40801;41.924;25.562;2022-10-01T12:02:19;99877.19;;;31.56;29.00
54900;BME280;40801;41.924;25.562;2022-10-01T12:10:02;99887.13;;;31.57;29.39
54900;BME280;40801;41.924;25.562;2022-10-01T12:12:34;99876.13;;;31.66;29.37
54900;BME280;40801;41.924;25.562;2022-10-01T12:17:37;99844.03;;;33.32;28.47
54900;BME280;40801;41.924;25.562;2022-10-01T12:20:04;99829.66;;;34.03;27.02
54900;BME280;40801;41.924;25.562;2022-10-01T12:22:37;99811.72;;;34.35;27.85
54900;BME280;40801;41.924;25.562;2022-10-01T12:25:03;99803.19;;;34.38;26.21
54900;BME280;40801;41.924;25.562;2022-10-01T12:40:08;99764.38;;;34.06;25.27
54900;BME280;40801;41.924;25.562;2022-10-01T12:45:12;99773.44;;;33.75;25.69
54900;BME280;40801;41.924;25.562;2022-10-01T12:58:14;99745.56;;;31.94;28.45
54900;BME280;40801;41.924;25.562;2022-10-01T13:00:49;99741.50;;;31.66;28.50
54900;BME280;40801;41.924;25.562;2022-10-01T13:04:00;99721.84;;;31.57;28.45
54900;BME280;40801;41.924;25.562;2022-10-01T13:08:49;99699.91;;;30.94;29.40
54900;BME280;40801;41.924;25.562;2022-10-01T13:13:54;99700.72;;;30.94;29.72
54900;BME280;40801;41.924;25.562;2022-10-01T13:18:54;99698.09;;;30.87;30.51
54900;BME280;40801;41.924;25.562;2022-10-01T13:32:03;99662.16;;;32.88;28.55
54900;BME280;40801;41.924;25.562;2022-10-01T13:34:44;99647.28;;;33.61;28.04
54900;BME280;40801;41.924;25.562;2022-10-01T13:39:38;99630.13;;;34.33;26.25
54900;BME280;40801;41.924;25.562;2022-10-01T13:42:08;99620.97;;;34.82;25.69
54900;BME280;40801;41.924;25.562;2022-10-01T13:44:36;99606.69;;;35.26;24.49
54900;BME280;40801;41.924;25.562;2022-10-01T13:47:04;99615.75;;;35.57;24.97
54900;BME280;40801;41.924;25.562;2022-10-01T13:49:31;99604.50;;;35.66;23.62
54900;BME280;40801;41.924;25.562;2022-10-01T13:51:57;99589.38;;;35.55;24.23
54900;BME280;40801;41.924;25.562;2022-10-01T13:56:54;99569.94;;;35.15;23.95
54900;BME280;40801;41.924;25.562;2022-10-01T13:59:25;99567.28;;;34.93;25.40
54900;BME280;40801;41.924;25.562;2022-10-01T14:01:50;99568.00;;;34.47;25.30
54900;BME280;40801;41.924;25.562;2022-10-01T14:04:20;99554.34;;;34.18;25.84
54900;BME280;40801;41.924;25.562;2022-10-01T14:06:54;99550.81;;;33.87;26.56
54900;BME280;40801;41.924;25.562;2022-10-01T14:11:47;99544.09;;;34.25;26.31
54900;BME280;40801;41.924;25.562;2022-10-01T14:14:36;99535.94;;;34.58;24.98
54900;BME280;40801;41.924;25.562;2022-10-01T14:17:23;99528.00;;;34.65;25.60
54900;BME280;40801;41.924;25.562;2022-10-01T14:19:50;99523.97;;;34.66;25.52
54900;BME280;40801;41.924;25.562;2022-10-01T14:22:20;99531.44;;;34.60;25.51
54900;BME280;40801;41.924;25.562;2022-10-01T14:32:25;99520.78;;;32.91;29.05
54900;BME280;40801;41.924;25.562;2022-10-01T14:35:06;99506.25;;;32.49;30.33
54900;BME280;40801;41.924;25.562;2022-10-01T14:37:43;99510.88;;;32.04;31.03
54900;BME280;40801;41.924;25.562;2022-10-01T14:40:17;99505.28;;;31.79;33.19
54900;BME280;40801;41.924;25.562;2022-10-01T14:42:42;99512.53;;;31.64;32.06
54900;BME280;40801;41.924;25.562;2022-10-01T14:45:14;99514.38;;;31.41;33.88
54900;BME280;40801;41.924;25.562;2022-10-01T14:47:40;99511.13;;;31.30;34.56
54900;BME280;40801;41.924;25.562;2022-10-01T14:50:15;99506.19;;;31.22;34.29
54900;BME280;40801;41.924;25.562;2022-10-01T14:52:44;99503.34;;;31.09;33.74
54900;BME280;40801;41.924;25.562;2022-10-01T14:55:11;99500.09;;;30.98;34.54
54900;BME280;40801;41.924;25.562;2022-10-01T14:57:38;99490.53;;;30.82;35.15
54900;BME280;40801;41.924;25.562;2022-10-01T15:00:12;99480.59;;;30.69;34.87
54900;BME280;40801;41.924;25.562;2022-10-01T15:02:45;99482.25;;;30.50;35.48
54900;BME280;40801;41.924;25.562;2022-10-01T15:05:22;99479.91;;;30.32;35.67
54900;BME280;40801;41.924;25.562;2022-10-01T15:07:47;99476.47;;;30.12;35.96
54900;BME280;40801;41.924;25.562;2022-10-01T15:10:15;99471.97;;;29.98;36.84